Time;durP1;ratioP1;P1;durP2;ratioP2;P2;SDS_P1;SDS_P2;PMS_P1;PMS_P2;Temp;Humidity;BMP_temperature;BMP_pressure;BME280_temperature;BME280_humidity;BME280_pressure;Samples;Min_cycle;Max_cycle;Signal;HPM_P1;HPM_P2
2022/01/07 00:00:47;;;;;;;6.93;3.60;;;2.70;99.90;;;;;;4192063;28;20330;-48
2022/01/07 00:02:53;;;;;;;7.97;4.93;;;2.70;99.90;;;;;;4190456;28;20262;-55
2022/01/07 00:04:54;;;;;;;7.23;5.07;;;2.70;99.90;;;;;;4191642;28;20266;-53
2022/01/07 00:06:55;;;;;;;11.80;6.97;;;2.70;99.90;;;;;;4190027;28;20289;-49
2022/01/07 00:08:56;;;;;;;7.33;3.57;;;2.70;99.90;;;;;;4190615;28;20289;-54
2022/01/07 00:10:58;;;;;;;8.90;4.17;;;2.60;99.90;;;;;;4190159;28;20335;-57
2022/01/07 00:12:59;;;;;;;9.03;3.40;;;2.50;99.90;;;;;;4191175;28;20269;-54
2022/01/07 00:15:00;;;;;;;5.47;3.50;;;2.40;99.90;;;;;;4190606;28;20287;-54
2022/01/07 00:17:01;;;;;;;7.27;3.80;;;2.30;99.90;;;;;;4191252;28;20281;-57
2022/01/07 00:19:03;;;;;;;16.80;8.30;;;2.20;99.90;;;;;;4191294;28;20315;-47
2022/01/07 00:21:04;;;;;;;7.80;5.07;;;2.20;99.90;;;;;;4190015;28;20277;-57
2022/01/07 00:23:05;;;;;;;13.27;6.80;;;2.10;99.90;;;;;;4190268;28;20319;-53
2022/01/07 00:25:08;;;;;;;10.40;5.33;;;2.00;99.90;;;;;;4189952;28;20856;-58
2022/01/07 00:27:09;;;;;;;9.80;5.80;;;2.00;99.90;;;;;;4191393;28;20301;-49
2022/01/07 00:29:10;;;;;;;7.00;4.00;;;2.00;99.90;;;;;;4190057;28;21304;-56
2022/01/07 00:31:12;;;;;;;6.57;3.93;;;1.90;99.90;;;;;;4190992;28;21164;-61
2022/01/07 00:33:13;;;;;;;8.63;4.60;;;1.80;99.90;;;;;;4189863;28;20277;-58
2022/01/07 00:35:17;;;;;;;6.03;3.07;;;1.80;99.90;;;;;;4191347;28;20265;-55
2022/01/07 00:37:18;;;;;;;7.67;3.77;;;1.70;99.90;;;;;;4188443;28;20856;-55
2022/01/07 00:39:20;;;;;;;8.60;4.63;;;1.70;99.90;;;;;;4191153;28;20273;-60
2022/01/07 00:41:21;;;;;;;8.47;4.83;;;1.70;99.90;;;;;;4189911;28;20331;-52
2022/01/07 00:43:22;;;;;;;6.97;3.80;;;1.60;99.90;;;;;;4190681;28;20334;-59
2022/01/07 00:45:24;;;;;;;10.13;4.87;;;1.50;99.90;;;;;;4189992;28;20261;-58
2022/01/07 00:47:26;;;;;;;5.03;2.40;;;1.60;99.90;;;;;;4190742;28;20269;-49
2022/01/07 00:49:27;;;;;;;5.60;2.87;;;1.50;99.90;;;;;;4190406;28;20331;-65
2022/01/07 00:51:28;;;;;;;6.43;4.20;;;1.50;99.90;;;;;;4190094;28;20277;-54
2022/01/07 00:53:29;;;;;;;6.70;3.60;;;1.50;99.90;;;;;;4190495;28;20265;-51
2022/01/07 00:55:31;;;;;;;7.77;5.10;;;1.40;99.90;;;;;;4189504;28;20311;-54
2022/01/07 00:57:32;;;;;;;5.47;3.43;;;1.30;99.90;;;;;;4190562;28;20269;-51
2022/01/07 00:59:33;;;;;;;11.30;5.60;;;1.30;99.90;;;;;;4189271;28;20307;-52
2022/01/07 01:01:35;;;;;;;5.17;2.77;;;1.20;99.90;;;;;;4189790;28;20278;-50
2022/01/07 01:03:36;;;;;;;6.83;3.33;;;1.20;99.90;;;;;;4189470;28;20261;-66
2022/01/07 01:05:39;;;;;;;5.97;3.00;;;1.20;99.90;;;;;;4190946;28;20257;-49
2022/01/07 01:07:41;;;;;;;7.33;4.20;;;1.10;99.90;;;;;;4189620;28;20257;-56
2022/01/07 01:09:43;;;;;;;13.90;6.00;;;1.10;99.90;;;;;;4190945;28;20362;-54
2022/01/07 01:11:45;;;;;;;21.53;8.13;;;1.10;99.90;;;;;;4189792;28;20322;-55
2022/01/07 01:13:46;;;;;;;13.10;5.90;;;1.10;99.90;;;;;;4191166;28;20265;-61
2022/01/07 01:15:48;;;;;;;7.87;4.20;;;1.00;99.90;;;;;;4189214;28;20281;-57
2022/01/07 01:17:51;;;;;;;14.57;7.23;;;1.10;99.90;;;;;;4190469;28;20998;-60
2022/01/07 01:19:52;;;;;;;13.27;6.50;;;1.10;99.90;;;;;;4190367;28;20274;-66
2022/01/07 01:21:54;;;;;;;8.20;4.93;;;1.10;99.90;;;;;;4189832;28;20810;-58
2022/01/07 01:23:55;;;;;;;6.97;3.77;;;1.10;99.90;;;;;;4189811;28;20261;-53
2022/01/07 01:25:56;;;;;;;5.67;3.77;;;1.10;99.90;;;;;;4189270;28;20374;-54
2022/01/07 01:27:58;;;;;;;5.37;2.80;;;1.10;99.90;;;;;;4190891;28;20685;-55
2022/01/07 01:30:02;;;;;;;3.60;2.77;;;1.00;99.90;;;;;;4189357;28;20311;-52
2022/01/07 01:32:03;;;;;;;5.10;3.10;;;1.00;99.90;;;;;;4190523;28;20323;-58
2022/01/07 01:34:05;;;;;;;4.13;2.30;;;1.00;99.90;;;;;;4189364;28;20281;-66
2022/01/07 01:36:08;;;;;;;5.60;3.10;;;0.90;99.90;;;;;;4190614;28;20274;-54
2022/01/07 01:38:10;;;;;;;3.93;2.17;;;0.90;99.90;;;;;;4189001;28;20916;-52
2022/01/07 01:40:12;;;;;;;5.83;2.60;;;0.90;99.90;;;;;;4190723;28;20347;-52
2022/01/07 01:42:13;;;;;;;4.17;2.20;;;0.90;99.90;;;;;;4189326;28;20343;-52
2022/01/07 01:44:14;;;;;;;7.47;3.00;;;0.80;99.90;;;;;;4190562;28;20322;-53
2022/01/07 01:46:18;;;;;;;4.23;2.50;;;0.80;99.90;;;;;;4189285;28;20301;-52
2022/01/07 01:48:20;;;;;;;5.30;3.07;;;0.80;99.90;;;;;;4190576;28;20273;-61
2022/01/07 01:50:23;;;;;;;4.83;2.50;;;0.70;99.90;;;;;;4189322;28;20266;-55
2022/01/07 01:52:24;;;;;;;3.80;1.87;;;0.70;99.90;;;;;;4190160;28;20307;-51
2022/01/07 01:54:25;;;;;;;6.17;2.60;;;0.60;99.90;;;;;;4189462;28;20299;-52
2022/01/07 01:56:26;;;;;;;3.63;2.70;;;0.60;99.90;;;;;;4189734;28;20303;-50
2022/01/07 01:58:27;;;;;;;8.90;4.27;;;0.60;99.90;;;;;;4190147;28;20266;-61
2022/01/07 02:00:29;;;;;;;3.97;2.07;;;0.60;99.90;;;;;;4189238;28;20258;-53
2022/01/07 02:02:30;;;;;;;6.27;2.80;;;0.60;99.90;;;;;;4189956;28;20322;-67
2022/01/07 02:04:31;;;;;;;6.40;2.50;;;0.50;99.90;;;;;;4189012;28;20886;-55
2022/01/07 02:06:32;;;;;;;5.83;3.30;;;0.50;99.90;;;;;;4190157;28;20713;-57
2022/01/07 02:08:36;;;;;;;4.87;3.10;;;0.50;99.90;;;;;;4189500;28;20265;-54
2022/01/07 02:10:37;;;;;;;5.43;3.20;;;0.50;99.90;;;;;;4190307;28;20277;-50
2022/01/07 02:12:39;;;;;;;5.97;2.93;;;0.40;99.90;;;;;;4189041;28;20323;-57
2022/01/07 02:14:53;;;;;;;4.70;2.57;;;0.40;99.90;;;;;;4192712;28;20346;-52
2022/01/07 02:16:54;;;;;;;4.00;2.20;;;0.40;99.90;;;;;;4191899;28;20262;-51
2022/01/07 02:18:55;;;;;;;4.13;2.40;;;0.40;99.90;;;;;;4193405;28;20269;-68
2022/01/07 02:20:56;;;;;;;4.47;1.90;;;0.40;99.90;;;;;;4191898;28;20281;-52
2022/01/07 02:22:58;;;;;;;4.37;2.10;;;0.40;99.90;;;;;;4193552;28;20782;-51
2022/01/07 02:25:00;;;;;;;3.50;2.07;;;0.30;99.90;;;;;;4192196;28;20340;-53
2022/01/07 02:27:01;;;;;;;3.83;2.00;;;0.30;99.90;;;;;;4192673;28;20293;-64
2022/01/07 02:29:04;;;;;;;3.20;2.10;;;0.30;99.90;;;;;;4192119;28;20269;-51
2022/01/07 02:31:06;;;;;;;3.83;1.90;;;0.30;99.90;;;;;;4192547;28;20269;-66
2022/01/07 02:33:07;;;;;;;2.33;1.60;;;0.20;99.90;;;;;;4192437;28;20625;-53
2022/01/07 02:35:09;;;;;;;3.53;1.60;;;0.20;99.90;;;;;;4192475;28;20265;-67
2022/01/07 02:37:12;;;;;;;3.40;1.20;;;0.20;99.90;;;;;;4192684;28;20265;-53
2022/01/07 02:39:14;;;;;;;2.53;1.40;;;0.10;99.90;;;;;;4191091;28;20358;-62
2022/01/07 02:41:15;;;;;;;3.73;1.90;;;0.10;99.90;;;;;;4193005;28;20731;-50
2022/01/07 02:43:16;;;;;;;6.47;2.07;;;0.10;99.90;;;;;;4191434;28;20262;-59
2022/01/07 02:45:17;;;;;;;2.27;1.23;;;0.10;99.90;;;;;;4192349;28;21324;-61
2022/01/07 02:47:20;;;;;;;3.07;1.40;;;0.10;99.90;;;;;;4191251;28;20360;-52
2022/01/07 02:49:21;;;;;;;4.03;1.87;;;0.00;99.90;;;;;;4193110;28;20273;-53
2022/01/07 02:51:22;;;;;;;3.80;1.47;;;0.00;99.90;;;;;;4191875;28;20738;-64
2022/01/07 02:53:23;;;;;;;2.07;1.50;;;-0.10;99.90;;;;;;4193358;28;20335;-59
2022/01/07 02:55:25;;;;;;;6.90;2.13;;;-0.10;99.90;;;;;;4191471;28;20269;-60
2022/01/07 02:57:26;;;;;;;3.93;1.63;;;-0.10;99.90;;;;;;4193155;28;20322;-54
2022/01/07 02:59:28;;;;;;;3.00;1.50;;;-0.10;99.90;;;;;;4191614;28;20266;-56
2022/01/07 03:01:29;;;;;;;4.20;1.77;;;-0.20;99.90;;;;;;4192357;28;20664;-57
2022/01/07 03:03:30;;;;;;;4.37;1.77;;;-0.20;99.90;;;;;;4192262;28;20327;-55
2022/01/07 03:05:31;;;;;;;5.80;1.77;;;-0.20;99.90;;;;;;4191760;28;20714;-59
2022/01/07 03:07:33;;;;;;;3.50;1.50;;;-0.20;99.90;;;;;;4192476;28;20367;-54
2022/01/07 03:09:35;;;;;;;3.03;1.90;;;-0.30;99.90;;;;;;4191717;28;20339;-50
2022/01/07 03:11:36;;;;;;;2.30;1.53;;;-0.30;99.90;;;;;;4192343;28;20269;-63
2022/01/07 03:13:37;;;;;;;3.97;1.80;;;-0.30;99.90;;;;;;4191454;28;20273;-57
2022/01/07 03:15:38;;;;;;;3.70;1.50;;;-0.40;99.90;;;;;;4192466;28;20266;-58
2022/01/07 03:17:40;;;;;;;2.53;1.43;;;-0.40;99.90;;;;;;4191395;28;20326;-55
2022/01/07 03:19:41;;;;;;;13.90;1.77;;;-0.40;99.90;;;;;;4192879;28;21111;-52
2022/01/07 03:21:42;;;;;;;1.97;1.10;;;-0.40;99.90;;;;;;4191103;28;20266;-50
2022/01/07 03:23:44;;;;;;;2.87;1.43;;;-0.40;99.90;;;;;;4192083;28;20672;-60
2022/01/07 03:25:45;;;;;;;2.90;1.50;;;-0.40;99.90;;;;;;4190365;28;20684;-62
2022/01/07 03:27:46;;;;;;;3.67;1.50;;;-0.50;99.90;;;;;;4192718;28;20362;-69
2022/01/07 03:29:47;;;;;;;4.50;1.23;;;-0.50;99.90;;;;;;4190382;28;20326;-53
2022/01/07 03:31:48;;;;;;;2.67;1.37;;;-0.50;99.90;;;;;;4192019;28;20265;-56
2022/01/07 03:33:50;;;;;;;3.23;1.67;;;-0.60;99.90;;;;;;4191152;28;20262;-53
2022/01/07 03:35:51;;;;;;;3.67;1.30;;;-0.60;99.90;;;;;;4191920;28;20303;-55
2022/01/07 03:37:52;;;;;;;1.50;1.17;;;-0.60;99.90;;;;;;4191526;28;20258;-67
2022/01/07 03:39:53;;;;;;;3.17;1.60;;;-0.60;99.90;;;;;;4191061;28;20337;-52
2022/01/07 03:41:54;;;;;;;4.30;1.60;;;-0.70;99.90;;;;;;4191784;28;20663;-54
2022/01/07 03:43:56;;;;;;;3.43;1.47;;;-0.70;99.90;;;;;;4190563;28;20265;-62
2022/01/07 03:45:57;;;;;;;3.40;1.80;;;-0.70;99.90;;;;;;4191766;28;20322;-50
2022/01/07 03:47:58;;;;;;;4.33;1.53;;;-0.80;99.90;;;;;;4190298;28;20859;-61
2022/01/07 03:49:59;;;;;;;2.00;1.40;;;-0.70;99.90;;;;;;4192548;28;20323;-54
2022/01/07 03:52:01;;;;;;;5.53;1.97;;;-0.80;99.90;;;;;;4190173;28;20810;-55
2022/01/07 03:54:02;;;;;;;2.70;1.50;;;-0.80;99.90;;;;;;4191886;28;20676;-61
2022/01/07 03:56:05;;;;;;;5.60;1.50;;;-0.80;99.90;;;;;;4190400;28;21142;-52
2022/01/07 03:58:07;;;;;;;3.33;1.53;;;-0.80;99.90;;;;;;4191405;28;20323;-64
2022/01/07 04:00:11;;;;;;;6.60;1.90;;;-0.90;99.90;;;;;;4190449;28;20246;-54
2022/01/07 04:02:12;;;;;;;5.03;1.70;;;-0.90;99.90;;;;;;4191473;28;20265;-55
2022/01/07 04:04:13;;;;;;;4.63;1.70;;;-0.90;99.90;;;;;;4190465;28;20257;-54
2022/01/07 04:06:20;;;;;;;4.17;1.80;;;-1.00;99.90;;;;;;4191197;28;20261;-63
2022/01/07 04:08:21;;;;;;;2.73;1.57;;;-1.00;99.90;;;;;;4190605;28;20273;-60
2022/01/07 04:10:22;;;;;;;2.93;1.63;;;-1.00;99.90;;;;;;4190789;28;20289;-55
2022/01/07 04:12:24;;;;;;;3.43;1.67;;;-1.10;99.90;;;;;;4190879;28;20253;-57
2022/01/07 04:14:26;;;;;;;2.13;1.30;;;-1.10;99.90;;;;;;4190317;28;20269;-54
2022/01/07 04:16:27;;;;;;;4.60;1.90;;;-1.10;99.90;;;;;;4190848;28;21052;-53
2022/01/07 04:18:28;;;;;;;3.83;1.93;;;-1.10;99.90;;;;;;4190119;28;20338;-57
2022/01/07 04:20:32;;;;;;;2.77;1.80;;;-1.10;99.90;;;;;;4192152;28;20355;-51
2022/01/07 04:22:33;;;;;;;4.80;2.13;;;-1.20;99.90;;;;;;4190414;28;20940;-59
2022/01/07 04:24:34;;;;;;;4.13;1.57;;;-1.20;99.90;;;;;;4191359;28;20261;-57
2022/01/07 04:26:37;;;;;;;164.80;32.03;;;-1.20;99.90;;;;;;4189843;28;21100;-56
2022/01/07 04:28:38;;;;;;;43.83;9.30;;;-1.20;99.90;;;;;;4190701;28;20269;-56
2022/01/07 04:30:42;;;;;;;12.30;3.17;;;-1.20;99.90;;;;;;4190218;28;20270;-50
2022/01/07 04:32:44;;;;;;;6.07;1.80;;;-1.20;99.90;;;;;;4191505;28;20266;-54
2022/01/07 04:34:45;;;;;;;7.70;1.63;;;-1.30;99.90;;;;;;4189808;28;20257;-60
2022/01/07 04:36:46;;;;;;;3.30;1.47;;;-1.30;99.90;;;;;;4189987;28;20265;-57
2022/01/07 04:38:47;;;;;;;3.17;1.33;;;-1.30;99.90;;;;;;4190234;28;20257;-54
2022/01/07 04:40:50;;;;;;;2.27;1.20;;;-1.30;99.90;;;;;;4189992;28;20742;-51
2022/01/07 04:42:51;;;;;;;6.80;1.47;;;-1.30;99.90;;;;;;4190742;28;20265;-56
2022/01/07 04:44:52;;;;;;;2.27;1.53;;;-1.30;99.90;;;;;;4189742;28;20310;-66
2022/01/07 04:46:53;;;;;;;4.50;1.43;;;-1.40;99.90;;;;;;4190408;28;20285;-59
2022/01/07 04:48:54;;;;;;;3.37;1.40;;;-1.40;99.90;;;;;;4189677;28;20265;-53
2022/01/07 04:50:55;;;;;;;2.33;1.27;;;-1.40;99.90;;;;;;4191435;28;20761;-56
2022/01/07 04:52:57;;;;;;;1.37;1.20;;;-1.40;99.90;;;;;;4189754;28;21094;-52
2022/01/07 04:54:58;;;;;;;4.67;1.27;;;-1.40;99.90;;;;;;4190919;28;20303;-52
2022/01/07 04:57:00;;;;;;;2.53;1.30;;;-1.40;99.90;;;;;;4188843;28;20326;-49
2022/01/07 04:59:01;;;;;;;3.60;1.43;;;-1.50;99.90;;;;;;4190841;28;20299;-53
2022/01/07 05:01:02;;;;;;;2.67;1.43;;;-1.50;99.90;;;;;;4189467;28;20318;-59
2022/01/07 05:03:03;;;;;;;4.93;1.50;;;-1.50;99.90;;;;;;4190643;28;20265;-52
2022/01/07 05:05:05;;;;;;;3.00;1.97;;;-1.50;99.90;;;;;;4189163;28;20362;-52
2022/01/07 05:07:06;;;;;;;2.30;1.20;;;-1.60;99.90;;;;;;4190125;28;20277;-57
2022/01/07 05:09:07;;;;;;;2.23;1.60;;;-1.60;99.90;;;;;;4189509;28;20277;-54
2022/01/07 05:11:08;;;;;;;4.47;1.47;;;-1.60;99.90;;;;;;4190191;28;20277;-61
2022/01/07 05:13:10;;;;;;;2.87;1.03;;;-1.60;99.90;;;;;;4189964;28;20279;-50
2022/01/07 05:15:12;;;;;;;6.20;1.63;;;-1.60;99.90;;;;;;4189278;28;20342;-59
2022/01/07 05:17:13;;;;;;;3.07;1.47;;;-1.60;99.90;;;;;;4190243;28;20273;-56
2022/01/07 05:19:15;;;;;;;2.83;1.80;;;-1.60;99.90;;;;;;4189699;28;20304;-58
2022/01/07 05:21:16;;;;;;;3.90;1.30;;;-1.70;99.90;;;;;;4190379;28;20676;-53
2022/01/07 05:23:18;;;;;;;3.13;1.57;;;-1.70;99.90;;;;;;4187755;28;20273;-58
2022/01/07 05:25:21;;;;;;;3.30;1.77;;;-1.70;99.90;;;;;;4190229;28;20331;-56
2022/01/07 05:27:22;;;;;;;3.73;1.50;;;-1.70;99.90;;;;;;4188701;28;20359;-59
2022/01/07 05:29:23;;;;;;;5.47;2.23;;;-1.70;99.90;;;;;;4190085;28;20342;-58
2022/01/07 05:31:25;;;;;;;3.00;1.03;;;-1.70;99.90;;;;;;4189262;28;20326;-49
2022/01/07 05:33:26;;;;;;;4.63;1.53;;;-1.70;99.90;;;;;;4190295;28;20299;-50
2022/01/07 05:35:29;;;;;;;5.60;2.90;;;-1.70;99.90;;;;;;4189149;28;20343;-53
2022/01/07 05:37:30;;;;;;;6.57;2.87;;;-1.70;99.90;;;;;;4190535;28;20286;-62
2022/01/07 05:39:31;;;;;;;4.70;1.50;;;-1.70;99.90;;;;;;4189088;28;20695;-60
2022/01/07 05:41:33;;;;;;;7.67;2.00;;;-1.70;99.90;;;;;;4189369;28;20676;-50
2022/01/07 05:43:34;;;;;;;5.20;1.60;;;-1.70;99.90;;;;;;4189165;28;20356;-61
2022/01/07 05:45:35;;;;;;;10.60;4.17;;;-1.70;99.90;;;;;;4189031;28;20289;-60
2022/01/07 05:47:36;;;;;;;13.80;5.27;;;-1.80;99.90;;;;;;4190174;28;20745;-51
2022/01/07 05:49:37;;;;;;;10.27;4.53;;;-1.80;99.90;;;;;;4192279;28;20295;-57
2022/01/07 05:51:38;;;;;;;11.03;4.43;;;-1.80;99.90;;;;;;4192793;28;20883;-52
2022/01/07 05:53:40;;;;;;;6.07;3.90;;;-1.80;99.90;;;;;;4191656;28;20258;-58
2022/01/07 05:55:41;;;;;;;8.17;3.80;;;-1.80;99.90;;;;;;4193559;28;20728;-57
2022/01/07 05:57:42;;;;;;;8.10;3.90;;;-1.80;99.90;;;;;;4191573;28;20577;-54
2022/01/07 05:59:43;;;;;;;8.33;3.60;;;-1.80;99.90;;;;;;4192755;28;20289;-50
2022/01/07 06:01:45;;;;;;;5.57;3.60;;;-1.80;99.90;;;;;;4191440;28;20925;-63
2022/01/07 06:03:46;;;;;;;4.23;3.20;;;-1.80;99.90;;;;;;4193178;28;20335;-54
2022/01/07 06:05:47;;;;;;;9.90;3.97;;;-1.80;99.90;;;;;;4191449;28;20273;-57
2022/01/07 06:07:48;;;;;;;11.87;5.37;;;-1.80;99.90;;;;;;4192573;28;20301;-67
2022/01/07 06:09:49;;;;;;;20.90;9.77;;;-1.80;99.90;;;;;;4191810;28;20741;-54
2022/01/07 06:11:50;;;;;;;26.80;12.83;;;-1.80;99.90;;;;;;4192569;28;20273;-55
2022/01/07 06:13:51;;;;;;;20.73;9.70;;;-1.80;99.90;;;;;;4192390;28;20994;-59
2022/01/07 06:15:52;;;;;;;12.50;6.63;;;-1.80;99.90;;;;;;4191979;28;20326;-60
2022/01/07 06:17:54;;;;;;;12.23;5.60;;;-1.80;99.90;;;;;;4192749;28;20371;-53
2022/01/07 06:19:55;;;;;;;16.50;8.57;;;-1.70;99.90;;;;;;4192247;28;20619;-55
2022/01/07 06:21:56;;;;;;;12.47;5.33;;;-1.60;99.90;;;;;;4192581;28;20937;-56
2022/01/07 06:23:57;;;;;;;9.37;4.67;;;-1.50;99.90;;;;;;4185963;28;20285;-55
2022/01/07 06:25:58;;;;;;;16.73;6.20;;;-1.50;99.90;;;;;;4184718;28;20293;-51
2022/01/07 06:27:59;;;;;;;10.87;4.50;;;-1.40;99.90;;;;;;4191485;28;20735;-55
2022/01/07 06:30:00;;;;;;;5.50;3.10;;;-1.50;99.90;;;;;;4192572;28;20326;-51
2022/01/07 06:32:02;;;;;;;6.73;3.60;;;-1.50;99.90;;;;;;4191175;28;20310;-54
2022/01/07 06:34:03;;;;;;;9.83;5.00;;;-1.50;99.90;;;;;;4192912;28;20270;-61
2022/01/07 06:36:04;;;;;;;7.20;3.90;;;-1.60;99.90;;;;;;4191138;28;20277;-64
2022/01/07 06:38:05;;;;;;;8.43;2.90;;;-1.60;99.90;;;;;;4192434;28;20277;-58
2022/01/07 06:40:07;;;;;;;12.90;4.00;;;-1.60;99.90;;;;;;4189290;28;20285;-57
2022/01/07 06:42:08;;;;;;;15.13;5.20;;;-1.70;99.90;;;;;;4184819;28;20269;-59
2022/01/07 06:44:10;;;;;;;16.53;6.90;;;-1.70;99.90;;;;;;4188236;28;20253;-54
2022/01/07 06:46:11;;;;;;;17.93;8.03;;;-1.60;99.90;;;;;;4191799;28;20277;-56
2022/01/07 06:48:12;;;;;;;14.13;7.00;;;-1.60;99.90;;;;;;4192464;28;20331;-62
2022/01/07 06:50:13;;;;;;;8.90;4.53;;;-1.50;99.90;;;;;;4189551;28;20289;-52
2022/01/07 06:52:15;;;;;;;12.97;4.53;;;-1.20;99.90;;;;;;4191876;28;20319;-58
2022/01/07 06:54:16;;;;;;;10.43;4.70;;;-1.10;99.90;;;;;;4189367;28;20277;-56
2022/01/07 06:56:17;;;;;;;18.43;8.73;;;-0.80;99.90;;;;;;4190673;28;20270;-53
2022/01/07 06:58:18;;;;;;;14.03;6.87;;;-0.60;99.90;;;;;;4188827;28;20326;-57
2022/01/07 07:00:19;;;;;;;18.30;9.33;;;-0.40;99.90;;;;;;4189521;28;20327;-56
2022/01/07 07:02:20;;;;;;;19.57;7.93;;;-0.20;99.90;;;;;;4191385;28;20314;-53
2022/01/07 07:04:23;;;;;;;13.90;7.53;;;0.00;99.90;;;;;;4192743;28;20285;-54
2022/01/07 07:06:24;;;;;;;14.90;7.83;;;0.20;99.90;;;;;;4190175;28;20274;-53
2022/01/07 07:08:25;;;;;;;8.67;4.43;;;0.50;99.90;;;;;;4192427;28;21221;-62
2022/01/07 07:10:26;;;;;;;9.80;5.40;;;0.70;99.90;;;;;;4189780;28;20265;-60
2022/01/07 07:12:28;;;;;;;12.27;7.07;;;0.70;99.90;;;;;;4190935;28;20258;-56
2022/01/07 07:14:29;;;;;;;18.80;8.83;;;0.80;99.90;;;;;;4189877;28;20281;-53
2022/01/07 07:16:31;;;;;;;19.10;10.10;;;0.80;99.90;;;;;;4189987;28;20281;-54
2022/01/07 07:18:32;;;;;;;12.80;7.00;;;0.80;99.90;;;;;;4191870;28;20274;-62
2022/01/07 07:20:33;;;;;;;16.53;7.83;;;0.90;99.90;;;;;;4191731;28;20326;-59
2022/01/07 07:22:34;;;;;;;17.57;8.70;;;0.90;99.90;;;;;;4191063;28;20403;-52
2022/01/07 07:24:35;;;;;;;16.27;8.00;;;1.10;99.90;;;;;;4191154;28;20307;-51
2022/01/07 07:26:36;;;;;;;14.43;6.17;;;1.20;99.90;;;;;;4192548;28;20688;-54
2022/01/07 07:28:38;;;;;;;10.27;6.07;;;1.50;99.90;;;;;;4191099;28;20308;-56
2022/01/07 07:30:41;;;;;;;14.17;7.67;;;1.70;99.90;;;;;;4191209;28;20326;-53
2022/01/07 07:32:43;;;;;;;16.13;8.00;;;1.80;99.90;;;;;;4190166;28;20303;-53
2022/01/07 07:37:05;;;;;;;15.73;6.00;;;1.90;99.90;;;;;;4179259;28;20274;-55
2022/01/07 07:39:09;;;;;;;12.03;6.50;;;2.10;99.90;;;;;;4192575;28;20319;-52
2022/01/07 07:41:11;;;;;;;12.33;5.73;;;2.40;99.90;;;;;;4190470;28;20269;-62
2022/01/07 07:43:12;;;;;;;8.83;4.30;;;2.50;99.90;;;;;;4191603;28;20746;-61
2022/01/07 07:45:13;;;;;;;8.50;3.97;;;2.80;99.90;;;;;;4186994;28;20121;-64
2022/01/07 07:47:15;;;;;;;7.90;3.70;;;3.10;99.90;;;;;;4188705;28;20122;-59
2022/01/07 07:49:16;;;;;;;10.30;5.13;;;3.60;99.90;;;;;;4186606;28;20190;-61
2022/01/07 07:51:18;;;;;;;18.13;3.90;;;3.90;99.90;;;;;;4191772;28;20036;-57
2022/01/07 07:53:19;;;;;;;13.63;4.77;;;4.20;99.90;;;;;;4189968;28;20029;-58
2022/01/07 07:55:20;;;;;;;9.50;4.30;;;4.40;99.90;;;;;;4189813;28;20021;-63
2022/01/07 07:57:23;;;;;;;16.07;5.67;;;4.50;99.90;;;;;;4190216;28;20029;-64
2022/01/07 07:59:25;;;;;;;7.57;4.37;;;4.50;99.90;;;;;;4189644;28;20126;-61
2022/01/07 08:01:27;;;;;;;8.33;3.60;;;4.50;99.90;;;;;;4191544;28;20078;-59
2022/01/07 08:03:28;;;;;;;6.47;2.50;;;4.50;99.90;;;;;;4189831;28;20082;-56
2022/01/07 08:05:29;;;;;;;7.37;3.60;;;3.80;98.50;;;;;;4190632;28;20040;-60
2022/01/07 08:07:30;;;;;;;5.93;3.80;;;3.10;99.80;;;;;;4188830;28;20044;-56
2022/01/07 08:09:36;;;;;;;7.23;4.23;;;2.60;99.90;;;;;;4191782;28;20493;-57
2022/01/07 08:11:49;;;;;;;4.60;3.30;;;2.20;99.80;;;;;;4190054;28;20097;-58
2022/01/07 08:16:10;;;;;;;5.13;3.03;;;2.70;99.90;;;;;;4190345;28;20032;-58
2022/01/07 08:18:11;;;;;;;7.17;2.70;;;3.30;99.90;;;;;;4191725;28;20041;-53
2022/01/07 08:20:13;;;;;;;6.03;3.10;;;3.70;99.60;;;;;;4190405;28;20098;-54
2022/01/07 08:22:15;;;;;;;7.20;4.03;;;3.90;98.00;;;;;;4191339;28;20178;-56
2022/01/07 08:24:16;;;;;;;11.40;4.73;;;3.20;96.80;;;;;;4190299;28;20093;-57
2022/01/07 08:26:19;;;;;;;8.10;3.63;;;2.70;97.80;;;;;;4191077;28;20052;-56
2022/01/07 08:28:24;;;;;;;6.53;3.83;;;2.60;98.90;;;;;;4188747;28;20289;-58
2022/01/07 08:30:29;;;;;;;6.97;4.13;;;2.50;98.30;;;;;;4190940;28;20334;-57
2022/01/07 08:34:56;;;;;;;9.23;3.33;;;3.10;97.80;;;;;;4190950;28;20258;-57
2022/01/07 08:36:58;;;;;;;9.27;4.53;;;3.60;97.30;;;;;;4189241;28;20273;-59
2022/01/07 08:38:59;;;;;;;4.17;2.83;;;3.80;96.80;;;;;;4190057;28;20319;-58
2022/01/07 08:41:01;;;;;;;9.57;2.93;;;3.90;95.80;;;;;;4190144;28;20323;-57
2022/01/07 08:43:02;;;;;;;15.50;3.70;;;3.90;96.30;;;;;;4189670;28;20722;-58
2022/01/07 08:45:04;;;;;;;13.37;5.33;;;4.00;95.50;;;;;;4188916;28;20331;-59
2022/01/07 08:47:05;;;;;;;9.60;4.17;;;3.80;95.10;;;;;;4189631;28;20273;-58
2022/01/07 08:49:06;;;;;;;13.50;6.97;;;3.80;96.00;;;;;;4189995;28;20379;-59
2022/01/07 08:51:08;;;;;;;35.53;14.97;;;4.10;95.80;;;;;;4189657;28;20327;-61
2022/01/07 08:53:09;;;;;;;29.00;11.50;;;4.00;95.10;;;;;;4190782;28;20319;-66
2022/01/07 08:55:11;;;;;;;20.03;7.70;;;4.00;95.10;;;;;;4189791;28;20319;-56
2022/01/07 08:57:12;;;;;;;15.10;6.10;;;4.10;94.80;;;;;;4190407;28;20269;-58
2022/01/07 08:59:13;;;;;;;4.53;2.27;;;4.10;94.50;;;;;;4189844;28;20277;-58
2022/01/07 09:01:14;;;;;;;4.43;1.90;;;4.20;93.70;;;;;;4191011;28;20328;-61
2022/01/07 09:03:15;;;;;;;4.23;1.97;;;3.80;92.20;;;;;;4188947;28;20285;-57
2022/01/07 09:05:17;;;;;;;4.10;1.90;;;3.40;92.50;;;;;;4191295;28;20277;-56
2022/01/07 09:07:18;;;;;;;5.27;1.50;;;3.30;93.40;;;;;;4189768;28;20277;-57
2022/01/07 09:09:19;;;;;;;4.17;1.37;;;3.40;93.50;;;;;;4190349;28;20296;-57
2022/01/07 09:11:20;;;;;;;7.03;1.87;;;3.40;93.20;;;;;;4189112;28;20320;-56
2022/01/07 09:13:21;;;;;;;8.93;1.83;;;3.50;93.30;;;;;;4189791;28;20257;-60
2022/01/07 09:15:22;;;;;;;5.00;1.87;;;3.60;93.20;;;;;;4188728;28;20281;-61
2022/01/07 09:17:23;;;;;;;4.73;2.73;;;3.50;92.80;;;;;;4189553;28;20277;-58
2022/01/07 09:19:26;;;;;;;6.57;3.57;;;3.50;92.80;;;;;;4190141;28;20313;-60
2022/01/07 09:21:27;;;;;;;7.37;2.60;;;3.40;92.60;;;;;;4189161;28;20273;-59
2022/01/07 09:23:28;;;;;;;8.00;2.60;;;3.50;93.00;;;;;;4190212;28;20253;-58
2022/01/07 09:25:29;;;;;;;4.33;3.10;;;3.40;92.20;;;;;;4188929;28;20273;-57
2022/01/07 09:27:31;;;;;;;6.73;2.57;;;3.20;92.40;;;;;;4189602;28;20327;-57
2022/01/07 09:29:34;;;;;;;5.63;3.10;;;3.10;92.50;;;;;;4188977;28;20323;-58
2022/01/07 09:31:35;;;;;;;3.90;2.40;;;3.10;92.70;;;;;;4190255;28;20622;-57
2022/01/07 09:33:37;;;;;;;6.23;2.30;;;3.10;93.10;;;;;;4188445;28;20283;-57
2022/01/07 09:35:38;;;;;;;4.27;1.90;;;3.00;92.70;;;;;;4190444;28;20277;-57
2022/01/07 09:37:39;;;;;;;4.83;2.67;;;3.20;92.90;;;;;;4188852;28;20819;-59
2022/01/07 09:39:40;;;;;;;3.27;1.40;;;3.10;92.70;;;;;;4190188;28;20266;-57
2022/01/07 09:41:41;;;;;;;3.07;1.43;;;3.00;92.70;;;;;;4188872;28;20727;-65
2022/01/07 09:43:44;;;;;;;7.63;2.13;;;3.20;92.50;;;;;;4189449;28;20281;-57
2022/01/07 09:45:45;;;;;;;4.70;2.27;;;3.10;92.10;;;;;;4189520;28;20340;-57
2022/01/07 09:47:46;;;;;;;2.80;1.60;;;3.10;92.50;;;;;;4189525;28;20282;-66
2022/01/07 09:49:48;;;;;;;6.00;1.60;;;3.10;92.60;;;;;;4190136;28;20277;-54
2022/01/07 09:51:50;;;;;;;7.13;1.90;;;3.10;92.30;;;;;;4190058;28;20323;-58
2022/01/07 09:53:51;;;;;;;4.20;2.30;;;3.00;92.70;;;;;;4189260;28;20331;-56
2022/01/07 09:55:52;;;;;;;3.87;2.13;;;2.90;91.90;;;;;;4188628;28;20375;-59
2022/01/07 09:57:53;;;;;;;6.40;2.03;;;2.70;92.10;;;;;;4190598;28;20342;-61
2022/01/07 09:59:54;;;;;;;3.27;1.97;;;2.60;92.60;;;;;;4189168;28;20326;-60
2022/01/07 10:02:00;;;;;;;4.50;1.93;;;2.50;92.50;;;;;;4190125;28;20265;-59
2022/01/07 10:04:01;;;;;;;12.20;2.03;;;2.60;93.20;;;;;;4188297;28;20327;-58
2022/01/07 10:06:14;;;;;;;4.03;2.23;;;2.70;92.90;;;;;;4189998;28;20284;-58
2022/01/07 10:08:29;;;;;;;11.43;2.67;;;2.70;92.70;;;;;;4188671;28;20354;-60
2022/01/07 10:10:30;;;;;;;4.63;1.80;;;2.70;92.80;;;;;;4188489;28;20273;-58
2022/01/07 10:12:52;;;;;;;3.00;1.37;;;2.70;92.90;;;;;;4188288;28;20749;-61
2022/01/07 10:15:14;;;;;;;3.87;1.73;;;2.50;92.60;;;;;;4189078;28;20274;-56
2022/01/07 10:17:16;;;;;;;4.37;1.70;;;2.50;92.70;;;;;;4188715;28;20289;-56
2022/01/07 10:19:35;;;;;;;3.57;1.60;;;2.50;93.30;;;;;;4188569;28;20254;-62
2022/01/07 10:21:37;;;;;;;4.40;1.70;;;2.50;92.90;;;;;;4188908;28;20653;-56
2022/01/07 10:23:39;;;;;;;1.97;1.30;;;2.50;93.10;;;;;;4189696;28;20586;-58
2022/01/07 10:25:46;;;;;;;2.23;0.90;;;2.40;93.20;;;;;;4187386;28;20326;-58
2022/01/07 10:27:48;;;;;;;3.10;1.50;;;2.40;93.30;;;;;;4189371;28;20261;-59
2022/01/07 10:29:49;;;;;;;1.70;1.30;;;2.50;93.20;;;;;;4188434;28;20319;-54
2022/01/07 10:31:50;;;;;;;2.97;1.50;;;2.50;93.00;;;;;;4190162;28;20654;-59
2022/01/07 10:33:53;;;;;;;1.83;1.17;;;2.60;92.80;;;;;;4188186;28;20292;-55
2022/01/07 10:36:13;;;;;;;1.70;1.00;;;2.50;92.30;;;;;;4192254;28;20281;-57
2022/01/07 10:38:36;;;;;;;2.22;1.42;;;2.50;92.80;;;;;;4191575;28;20672;-59
2022/01/07 10:40:39;;;;;;;7.37;2.57;;;2.40;92.10;;;;;;4192666;28;20033;-58
2022/01/07 10:42:40;;;;;;;2.67;1.67;;;2.50;93.10;;;;;;4191664;28;20257;-60
2022/01/07 10:45:02;;;;;;;8.50;4.27;;;2.60;92.70;;;;;;4192597;28;20261;-58